Maersk Aegean — 9V3498 — position and weather

sailwx.info

Track history (hours):
 
Tides and Currents Weather Stations Pressure Air Temp Water Temp Dewpoint Dewpoint Depression Visibility Wind Speed Wind Dir Waves Ship Positions

Maersk Aegean

Last reported at 2017-Oct-26 17:33 UTC. Time now 2017-Dec-14 06:29 UTC.
Position N 31°23' E 032°18'.
Warning: this ship's position is 48 days out of date.

Length 184 m; draft 10.5 m.

Type: Tanker. MMSI: 563269000.

Date/timePositionNaut miles runAvg speedWind from/ knotsBaromVisibWave heightAir tempDewpointWater temp
2017-Oct-26 17:33N 31°23' E 032°18'0 0.4
2017-Oct-26 17:27N 31°23' E 032°18'1 1.5
2017-Oct-26 17:00N 31°24' E 032°18'3 6.0
2017-Oct-26 16:28N 31°27' E 032°17'7 9.4
2017-Oct-26 15:44N 31°32' E 032°12'311.6
2017-Oct-26 15:30N 31°34' E 032°10'611.9
2017-Oct-26 14:59N 31°38' E 032°05'912.1
2017-Oct-26 14:14N 31°45' E 031°57'312.5
2017-Oct-26 14:00N 31°47' E 031°55'44912.4
2017-Oct-25 01:48N 37°24' E 025°55'412.6
2017-Oct-25 01:30N 37°27' E 025°52'611.9
2017-Oct-25 00:59N 37°32' E 025°47'612.5
2017-Oct-25 00:30N 37°37' E 025°45'612.8
2017-Oct-25 00:00N 37°43' E 025°42'612.8
2017-Oct-24 23:30N 37°49' E 025°39'24010.2
2017-Oct-23 23:56N 40°56' E 028°54'4 8.7
2017-Oct-23 23:30N 40°58' E 028°58'434 9.0
2017-Oct-21 23:23N 44°30' E 037°34'512.8
2017-Oct-21 23:00N 44°32' E 037°40'612.6
2017-Oct-21 22:30N 44°36' E 037°47'5 9.2
2017-Oct-21 22:00N 44°40' E 037°50'4 8.3
2017-Oct-21 21:31N 44°44' E 037°48'0 0.4
2017-Oct-21 21:00N 44°44' E 037°48'0 0.0
2017-Oct-21 20:24N 44°44' E 037°48'0 0.0
2017-Oct-21 20:00N 44°44' E 037°48'0 0.0
2017-Oct-21 19:30N 44°44' E 037°48'0 0.0
2017-Oct-21 19:00N 44°44' E 037°48'0 0.0
2017-Oct-21 18:30N 44°44' E 037°48'0 0.0
2017-Oct-21 18:00N 44°44' E 037°48'0 0.0
2017-Oct-21 17:30N 44°44' E 037°48'0 0.0
2017-Oct-21 17:00N 44°44' E 037°48'0 0.0
2017-Oct-21 16:30N 44°44' E 037°48'0 0.0
2017-Oct-21 16:00N 44°44' E 037°48'0 0.0
2017-Oct-21 15:30N 44°44' E 037°48'0 0.0
2017-Oct-21 15:00N 44°44' E 037°48'0 0.0
2017-Oct-21 14:00N 44°44' E 037°48'0 0.0
2017-Oct-21 13:30N 44°44' E 037°48'0 0.0
2017-Oct-21 13:00N 44°44' E 037°48'0 0.0
2017-Oct-21 12:27N 44°44' E 037°48'0 0.0
2017-Oct-21 12:00N 44°44' E 037°48'0 0.0
2017-Oct-21 11:30N 44°44' E 037°48'0 0.0
2017-Oct-21 11:00N 44°44' E 037°48'0 0.0
2017-Oct-21 10:30N 44°44' E 037°48'0 0.0
2017-Oct-21 10:00N 44°44' E 037°48'0 0.0
2017-Oct-21 09:30N 44°44' E 037°48'0 0.0
2017-Oct-21 09:00N 44°44' E 037°48'0 0.0
2017-Oct-21 08:30N 44°44' E 037°48'0 0.0
2017-Oct-21 08:00N 44°44' E 037°48'0 0.0
2017-Oct-21 07:30N 44°44' E 037°48'0 0.0
2017-Oct-21 07:00N 44°44' E 037°48'0 0.0
2017-Oct-21 06:30N 44°44' E 037°48'0 0.0
2017-Oct-21 06:00N 44°44' E 037°48'0 0.0
2017-Oct-21 05:30N 44°44' E 037°48'0 0.0
2017-Oct-21 05:00N 44°44' E 037°48'0 0.0
2017-Oct-21 04:30N 44°44' E 037°48'0 0.0
2017-Oct-21 04:00N 44°44' E 037°48'0 0.0
2017-Oct-21 03:30N 44°44' E 037°48'0 0.0
2017-Oct-21 03:00N 44°44' E 037°48'0 0.0
2017-Oct-21 02:30N 44°44' E 037°48'0 0.0
2017-Oct-21 02:00N 44°44' E 037°48'0 0.0
2017-Oct-21 01:30N 44°44' E 037°48'0 0.0
2017-Oct-21 01:00N 44°44' E 037°48'0 0.0
2017-Oct-21 00:30N 44°44' E 037°48'0 0.0
2017-Oct-21 00:00N 44°44' E 037°48'0 0.0
2017-Oct-20 23:30N 44°44' E 037°48'0 0.0
2017-Oct-20 23:00N 44°44' E 037°48'0 0.0
2017-Oct-20 22:30N 44°44' E 037°48'0 0.0
2017-Oct-20 22:00N 44°44' E 037°48'0 0.0
2017-Oct-20 21:30N 44°44' E 037°48'0 0.0
2017-Oct-20 21:00N 44°44' E 037°48'0 0.0
2017-Oct-20 20:30N 44°44' E 037°48'0 0.0
2017-Oct-20 20:00N 44°44' E 037°48'0 0.0
2017-Oct-20 19:30N 44°44' E 037°48'0 0.0
2017-Oct-20 19:00N 44°44' E 037°48'0 0.0
2017-Oct-20 18:30N 44°44' E 037°48'0 0.0
2017-Oct-20 18:00N 44°44' E 037°48'0 0.0
2017-Oct-20 17:30N 44°44' E 037°48'0 0.0
2017-Oct-20 17:00N 44°44' E 037°48'0 0.0
2017-Oct-20 16:30N 44°44' E 037°48'0 0.0
2017-Oct-20 16:00N 44°44' E 037°48'0 0.0
2017-Oct-20 15:30N 44°44' E 037°48'0 0.0
2017-Oct-20 15:00N 44°44' E 037°48'0 0.0
2017-Oct-20 14:30N 44°44' E 037°48'0 0.0
2017-Oct-20 13:30N 44°44' E 037°48'0 0.0
2017-Oct-20 13:00N 44°44' E 037°48'0 0.0
2017-Oct-20 12:30N 44°44' E 037°48'0 0.0
2017-Oct-20 12:00N 44°44' E 037°48'0 0.0
2017-Oct-20 11:30N 44°44' E 037°48'0 0.0
2017-Oct-20 11:00N 44°44' E 037°48'0 0.0
2017-Oct-20 10:30N 44°44' E 037°48'0 0.0
2017-Oct-20 10:00N 44°44' E 037°48'0 0.0
2017-Oct-20 09:30N 44°44' E 037°48'0 0.0
2017-Oct-20 09:00N 44°44' E 037°48'0 0.0
2017-Oct-20 08:30N 44°44' E 037°48'0 0.0
2017-Oct-20 08:00N 44°44' E 037°48'0 0.0
2017-Oct-20 07:30N 44°44' E 037°48'0 0.0
2017-Oct-20 07:00N 44°44' E 037°48'0 0.0
2017-Oct-20 06:30N 44°44' E 037°48'0 0.0
2017-Oct-20 06:00N 44°44' E 037°48'0 0.0
2017-Oct-20 05:30N 44°44' E 037°48'0 0.0
2017-Oct-20 05:00N 44°44' E 037°48'0 0.0
2017-Oct-20 04:30N 44°44' E 037°48'0 0.0
2017-Oct-20 04:00N 44°44' E 037°48'0 0.0
2017-Oct-20 03:30N 44°44' E 037°48'0 0.0
2017-Oct-20 03:00N 44°44' E 037°48'0 0.0
2017-Oct-20 02:30N 44°44' E 037°48'0 0.0
2017-Oct-20 01:57N 44°44' E 037°48'0 0.0
2017-Oct-20 01:30N 44°44' E 037°48'0 0.0
2017-Oct-20 01:00N 44°44' E 037°48'0 0.0
2017-Oct-20 00:30N 44°44' E 037°48'0 0.0
2017-Oct-20 00:00N 44°44' E 037°48'0 0.0
2017-Oct-19 23:30N 44°44' E 037°48'0 0.0
2017-Oct-19 23:00N 44°44' E 037°48'0 0.0
2017-Oct-19 22:30N 44°44' E 037°48'1 2.2
2017-Oct-19 22:00N 44°43' E 037°48'4 7.6
2017-Oct-19 21:30N 44°39' E 037°51'4 7.2
2017-Oct-19 21:00N 44°37' E 037°54'1 1.0
2017-Oct-19 20:30N 44°36' E 037°54'0 0.0
2017-Oct-19 20:00N 44°36' E 037°54'0 0.0
2017-Oct-19 19:30N 44°36' E 037°54'0 0.0
2017-Oct-19 18:57N 44°36' E 037°54'0 0.0
2017-Oct-19 18:30N 44°36' E 037°54'0 0.0
2017-Oct-19 18:00N 44°36' E 037°54'0 0.0
2017-Oct-19 17:27N 44°36' E 037°54'0 0.0
2017-Oct-19 17:00N 44°36' E 037°54'0 0.0
2017-Oct-19 16:30N 44°36' E 037°54'0 0.1
2017-Oct-19 16:00N 44°36' E 037°54'0 0.0
2017-Oct-19 15:30N 44°36' E 037°54'0 0.0
2017-Oct-19 15:00N 44°36' E 037°54'0 0.0
2017-Oct-19 14:21N 44°36' E 037°54'0 0.1
2017-Oct-19 14:00N 44°36' E 037°54'0 0.0
2017-Oct-19 13:30N 44°36' E 037°54'0 0.0
2017-Oct-19 13:00N 44°36' E 037°54'0 0.0
2017-Oct-19 12:30N 44°36' E 037°54'0 0.0
2017-Oct-19 12:00N 44°36' E 037°54'0 0.0
2017-Oct-19 11:30N 44°36' E 037°54'0 0.0
2017-Oct-19 11:00N 44°36' E 037°54'0 0.0
2017-Oct-19 10:30N 44°36' E 037°54'0 0.0
2017-Oct-19 10:00N 44°36' E 037°54'0 0.0
2017-Oct-19 09:30N 44°36' E 037°54'0 0.0
2017-Oct-19 09:00N 44°36' E 037°54'0 0.0
2017-Oct-19 08:30N 44°36' E 037°54'0 0.0
2017-Oct-19 08:00N 44°36' E 037°54'0 0.0
2017-Oct-19 07:30N 44°36' E 037°54'0 0.0
2017-Oct-19 06:57N 44°36' E 037°54'0 0.0
2017-Oct-19 06:30N 44°36' E 037°54'0 0.0
2017-Oct-19 06:00N 44°36' E 037°54'0 0.0
2017-Oct-19 05:30N 44°36' E 037°54'0 0.0
2017-Oct-19 05:00N 44°36' E 037°54'0 0.0
2017-Oct-19 04:30N 44°36' E 037°54'0 0.0
2017-Oct-19 03:30N 44°36' E 037°54'0 0.0
2017-Oct-19 03:00N 44°36' E 037°54'0 0.0
2017-Oct-19 02:27N 44°36' E 037°54'0 0.0
2017-Oct-19 02:00N 44°36' E 037°54'0 0.0
2017-Oct-19 01:30N 44°36' E 037°54'0 0.0
2017-Oct-19 00:57N 44°36' E 037°54'0 0.0
2017-Oct-19 00:30N 44°36' E 037°54'0 0.0
2017-Oct-18 23:30N 44°36' E 037°54'0 0.0
2017-Oct-18 23:00N 44°36' E 037°54'0 0.0
2017-Oct-18 22:30N 44°36' E 037°54'0 0.0
2017-Oct-18 22:00N 44°36' E 037°54'0 0.0
2017-Oct-18 21:30N 44°36' E 037°54'0 0.0
2017-Oct-18 21:00N 44°36' E 037°54'0 0.0
2017-Oct-18 20:30N 44°36' E 037°54'0 0.0
2017-Oct-18 20:00N 44°36' E 037°54'0 0.0
2017-Oct-18 19:30N 44°36' E 037°54'0 0.0
2017-Oct-18 19:00N 44°36' E 037°54'0 0.0
2017-Oct-18 18:30N 44°36' E 037°54'0 0.0
2017-Oct-18 18:00N 44°36' E 037°54'0 0.0
2017-Oct-18 17:30N 44°36' E 037°54'0 0.0
2017-Oct-18 17:00N 44°36' E 037°54'0 0.0
2017-Oct-18 16:30N 44°36' E 037°55'0 0.0
2017-Oct-18 16:00N 44°36' E 037°55'0 0.0
2017-Oct-18 15:30N 44°36' E 037°55'0 0.0
2017-Oct-18 14:00N 44°36' E 037°55'0 0.0
2017-Oct-18 13:30N 44°36' E 037°55'0 0.0
2017-Oct-18 13:00N 44°36' E 037°55'0 0.0
2017-Oct-18 12:30N 44°36' E 037°55'0 0.0
2017-Oct-18 12:00N 44°36' E 037°55'0 0.0
2017-Oct-18 11:30N 44°36' E 037°55'0 0.0
2017-Oct-18 11:00N 44°36' E 037°55'0 0.0
2017-Oct-18 10:30N 44°36' E 037°55'0 0.0
2017-Oct-18 10:00N 44°36' E 037°55'0 0.0
2017-Oct-18 09:30N 44°36' E 037°55'0 0.0
2017-Oct-18 09:00N 44°36' E 037°55'0 0.0
2017-Oct-18 08:27N 44°36' E 037°55'0 0.0
2017-Oct-18 08:00N 44°36' E 037°55'0 0.0
2017-Oct-18 07:30N 44°36' E 037°55'0 0.0
2017-Oct-18 07:00N 44°36' E 037°55'0 0.0
2017-Oct-18 06:30N 44°36' E 037°55'0 0.0
2017-Oct-18 06:00N 44°36' E 037°55'0 0.0
2017-Oct-18 05:27N 44°36' E 037°54'0 0.1
2017-Oct-18 05:00N 44°36' E 037°55'0 0.0
2017-Oct-18 04:30N 44°36' E 037°55'0 0.0
2017-Oct-18 04:00N 44°36' E 037°55'0 0.0
2017-Oct-18 03:30N 44°36' E 037°55'0 0.0
2017-Oct-18 03:00N 44°36' E 037°55'0 0.0
2017-Oct-18 02:29N 44°36' E 037°55'0 0.0
2017-Oct-18 02:00N 44°36' E 037°55'0 0.0
2017-Oct-18 01:30N 44°36' E 037°55'0 0.0
2017-Oct-18 01:00N 44°36' E 037°55'0 0.0
2017-Oct-18 00:26N 44°36' E 037°55'0 0.1
2017-Oct-18 00:00N 44°36' E 037°55'0 0.0
2017-Oct-17 23:30N 44°36' E 037°55'0 0.0
2017-Oct-17 23:00N 44°36' E 037°55'0 0.0
2017-Oct-17 22:30N 44°36' E 037°55'0 0.0
2017-Oct-17 21:59N 44°36' E 037°55'0 0.0
2017-Oct-17 21:30N 44°36' E 037°55'0 0.1
2017-Oct-17 21:00N 44°36' E 037°54'0 0.0
2017-Oct-17 20:30N 44°36' E 037°54'0 0.0
2017-Oct-17 20:00N 44°36' E 037°54'0 0.0
2017-Oct-17 19:30N 44°36' E 037°54'0 0.0
2017-Oct-17 19:00N 44°36' E 037°54'0 0.0
2017-Oct-17 18:30N 44°36' E 037°54'0 0.0
2017-Oct-17 18:00N 44°36' E 037°54'0 0.0
2017-Oct-17 17:29N 44°36' E 037°55'0 0.0
2017-Oct-17 17:00N 44°36' E 037°55'0 0.0
2017-Oct-17 16:30N 44°36' E 037°55'0 0.0
2017-Oct-17 15:59N 44°36' E 037°55'0 0.0
2017-Oct-17 15:17N 44°36' E 037°55'0 0.0
2017-Oct-17 15:00N 44°36' E 037°55'0 0.0
2017-Oct-17 14:30N 44°36' E 037°55'0 0.0
2017-Oct-17 14:00N 44°36' E 037°55'0 0.0
2017-Oct-17 13:29N 44°36' E 037°55'0 0.0
2017-Oct-17 12:59N 44°36' E 037°55'0 0.0
2017-Oct-17 12:30N 44°36' E 037°55'0 0.0
2017-Oct-17 12:00N 44°36' E 037°55'0 0.0
2017-Oct-17 11:30N 44°36' E 037°55'0 0.0
2017-Oct-17 10:59N 44°36' E 037°55'0 0.0
2017-Oct-17 10:30N 44°36' E 037°55'0 0.0
2017-Oct-17 09:59N 44°36' E 037°55'0 0.0
2017-Oct-17 09:29N 44°36' E 037°55'0 0.0
2017-Oct-17 09:00N 44°36' E 037°55'0 0.0
2017-Oct-17 08:30N 44°36' E 037°55'0 0.1
2017-Oct-17 08:00N 44°36' E 037°55'0 0.0
2017-Oct-17 07:29N 44°36' E 037°55'0 0.0
2017-Oct-17 06:59N 44°36' E 037°55'0 0.0
2017-Oct-17 06:29N 44°36' E 037°55'0 0.0
2017-Oct-17 06:00N 44°36' E 037°55'0 0.0
2017-Oct-17 05:29N 44°36' E 037°55'0 0.0
2017-Oct-17 04:59N 44°36' E 037°55'0 0.0
2017-Oct-17 04:29N 44°36' E 037°55'0 0.0
2017-Oct-17 03:59N 44°36' E 037°55'0 0.0
2017-Oct-17 03:14N 44°36' E 037°54'0 0.1
2017-Oct-17 03:00N 44°36' E 037°54'0 0.0
2017-Oct-17 02:29N 44°36' E 037°54'0 0.0
2017-Oct-17 01:59N 44°36' E 037°54'0 0.0
2017-Oct-17 01:29N 44°36' E 037°54'0 0.0
2017-Oct-17 00:59N 44°36' E 037°54'0 0.0
2017-Oct-17 00:29N 44°36' E 037°54'0 0.0
2017-Oct-16 23:59N 44°36' E 037°54'0 0.0
2017-Oct-16 23:29N 44°36' E 037°54'0 0.0
2017-Oct-16 22:59N 44°36' E 037°54'0 0.0
2017-Oct-16 22:29N 44°36' E 037°54'0 0.0
2017-Oct-16 21:59N 44°36' E 037°54'0 0.0
2017-Oct-16 21:29N 44°36' E 037°54'0 0.1
2017-Oct-16 20:59N 44°36' E 037°54'0 0.0
2017-Oct-16 20:29N 44°36' E 037°54'0 0.1
2017-Oct-16 19:59N 44°36' E 037°55'0 0.1
2017-Oct-16 19:29N 44°36' E 037°55'0 0.0
2017-Oct-16 18:59N 44°36' E 037°55'0 0.0
2017-Oct-16 18:05N 44°36' E 037°55'0 0.1
2017-Oct-16 17:59N 44°36' E 037°55'  
Track history (hours):
 
Tides and Currents Weather Stations Pressure Air Temp Water Temp Dewpoint Dewpoint Depression Visibility Wind Speed Wind Dir Waves Ship Positions

Maersk Aegean

Last reported at 2017-Oct-26 17:33 UTC. Time now 2017-Dec-14 06:29 UTC.
Position N 31°23' E 032°18'.
Warning: this ship's position is 48 days out of date.

Length 184 m; draft 10.5 m.

Type: Tanker. MMSI: 563269000.

Date/timePositionNaut miles runAvg speedWind from/ knotsBaromVisibWave heightAir tempDewpointWater temp
2017-Oct-26 17:33N 31°23' E 032°18'0 0.4
2017-Oct-26 17:27N 31°23' E 032°18'1 1.5
2017-Oct-26 17:00N 31°24' E 032°18'3 6.0
2017-Oct-26 16:28N 31°27' E 032°17'7 9.4
2017-Oct-26 15:44N 31°32' E 032°12'311.6
2017-Oct-26 15:30N 31°34' E 032°10'611.9
2017-Oct-26 14:59N 31°38' E 032°05'912.1
2017-Oct-26 14:14N 31°45' E 031°57'312.5
2017-Oct-26 14:00N 31°47' E 031°55'44912.4
2017-Oct-25 01:48N 37°24' E 025°55'412.6
2017-Oct-25 01:30N 37°27' E 025°52'611.9
2017-Oct-25 00:59N 37°32' E 025°47'612.5
2017-Oct-25 00:30N 37°37' E 025°45'612.8
2017-Oct-25 00:00N 37°43' E 025°42'612.8
2017-Oct-24 23:30N 37°49' E 025°39'24010.2
2017-Oct-23 23:56N 40°56' E 028°54'4 8.7
2017-Oct-23 23:30N 40°58' E 028°58'434 9.0
2017-Oct-21 23:23N 44°30' E 037°34'512.8
2017-Oct-21 23:00N 44°32' E 037°40'612.6
2017-Oct-21 22:30N 44°36' E 037°47'5 9.2
2017-Oct-21 22:00N 44°40' E 037°50'4 8.3
2017-Oct-21 21:31N 44°44' E 037°48'0 0.4
2017-Oct-21 21:00N 44°44' E 037°48'0 0.0
2017-Oct-21 20:24N 44°44' E 037°48'0 0.0
2017-Oct-21 20:00N 44°44' E 037°48'0 0.0
2017-Oct-21 19:30N 44°44' E 037°48'0 0.0
2017-Oct-21 19:00N 44°44' E 037°48'0 0.0
2017-Oct-21 18:30N 44°44' E 037°48'0 0.0
2017-Oct-21 18:00N 44°44' E 037°48'0 0.0
2017-Oct-21 17:30N 44°44' E 037°48'0 0.0
2017-Oct-21 17:00N 44°44' E 037°48'0 0.0
2017-Oct-21 16:30N 44°44' E 037°48'0 0.0
2017-Oct-21 16:00N 44°44' E 037°48'0 0.0
2017-Oct-21 15:30N 44°44' E 037°48'0 0.0
2017-Oct-21 15:00N 44°44' E 037°48'0 0.0
2017-Oct-21 14:00N 44°44' E 037°48'0 0.0
2017-Oct-21 13:30N 44°44' E 037°48'0 0.0
2017-Oct-21 13:00N 44°44' E 037°48'0 0.0
2017-Oct-21 12:27N 44°44' E 037°48'0 0.0
2017-Oct-21 12:00N 44°44' E 037°48'0 0.0
2017-Oct-21 11:30N 44°44' E 037°48'0 0.0
2017-Oct-21 11:00N 44°44' E 037°48'0 0.0
2017-Oct-21 10:30N 44°44' E 037°48'0 0.0
2017-Oct-21 10:00N 44°44' E 037°48'0 0.0
2017-Oct-21 09:30N 44°44' E 037°48'0 0.0
2017-Oct-21 09:00N 44°44' E 037°48'0 0.0
2017-Oct-21 08:30N 44°44' E 037°48'0 0.0
2017-Oct-21 08:00N 44°44' E 037°48'0 0.0
2017-Oct-21 07:30N 44°44' E 037°48'0 0.0
2017-Oct-21 07:00N 44°44' E 037°48'0 0.0
2017-Oct-21 06:30N 44°44' E 037°48'0 0.0
2017-Oct-21 06:00N 44°44' E 037°48'0 0.0
2017-Oct-21 05:30N 44°44' E 037°48'0 0.0
2017-Oct-21 05:00N 44°44' E 037°48'0 0.0
2017-Oct-21 04:30N 44°44' E 037°48'0 0.0
2017-Oct-21 04:00N 44°44' E 037°48'0 0.0
2017-Oct-21 03:30N 44°44' E 037°48'0 0.0
2017-Oct-21 03:00N 44°44' E 037°48'0 0.0
2017-Oct-21 02:30N 44°44' E 037°48'0 0.0
2017-Oct-21 02:00N 44°44' E 037°48'0 0.0
2017-Oct-21 01:30N 44°44' E 037°48'0 0.0
2017-Oct-21 01:00N 44°44' E 037°48'0 0.0
2017-Oct-21 00:30N 44°44' E 037°48'0 0.0
2017-Oct-21 00:00N 44°44' E 037°48'0 0.0
2017-Oct-20 23:30N 44°44' E 037°48'0 0.0
2017-Oct-20 23:00N 44°44' E 037°48'0 0.0
2017-Oct-20 22:30N 44°44' E 037°48'0 0.0
2017-Oct-20 22:00N 44°44' E 037°48'0 0.0
2017-Oct-20 21:30N 44°44' E 037°48'0 0.0
2017-Oct-20 21:00N 44°44' E 037°48'0 0.0
2017-Oct-20 20:30N 44°44' E 037°48'0 0.0
2017-Oct-20 20:00N 44°44' E 037°48'0 0.0
2017-Oct-20 19:30N 44°44' E 037°48'0 0.0
2017-Oct-20 19:00N 44°44' E 037°48'0 0.0
2017-Oct-20 18:30N 44°44' E 037°48'0 0.0
2017-Oct-20 18:00N 44°44' E 037°48'0 0.0
2017-Oct-20 17:30N 44°44' E 037°48'0 0.0
2017-Oct-20 17:00N 44°44' E 037°48'0 0.0
2017-Oct-20 16:30N 44°44' E 037°48'0 0.0
2017-Oct-20 16:00N 44°44' E 037°48'0 0.0
2017-Oct-20 15:30N 44°44' E 037°48'0 0.0
2017-Oct-20 15:00N 44°44' E 037°48'0 0.0
2017-Oct-20 14:30N 44°44' E 037°48'0 0.0
2017-Oct-20 13:30N 44°44' E 037°48'0 0.0
2017-Oct-20 13:00N 44°44' E 037°48'0 0.0
2017-Oct-20 12:30N 44°44' E 037°48'0 0.0
2017-Oct-20 12:00N 44°44' E 037°48'0 0.0
2017-Oct-20 11:30N 44°44' E 037°48'0 0.0
2017-Oct-20 11:00N 44°44' E 037°48'0 0.0
2017-Oct-20 10:30N 44°44' E 037°48'0 0.0
2017-Oct-20 10:00N 44°44' E 037°48'0 0.0
2017-Oct-20 09:30N 44°44' E 037°48'0 0.0
2017-Oct-20 09:00N 44°44' E 037°48'0 0.0
2017-Oct-20 08:30N 44°44' E 037°48'0 0.0
2017-Oct-20 08:00N 44°44' E 037°48'0 0.0
2017-Oct-20 07:30N 44°44' E 037°48'0 0.0
2017-Oct-20 07:00N 44°44' E 037°48'0 0.0
2017-Oct-20 06:30N 44°44' E 037°48'0 0.0
2017-Oct-20 06:00N 44°44' E 037°48'0 0.0
2017-Oct-20 05:30N 44°44' E 037°48'0 0.0
2017-Oct-20 05:00N 44°44' E 037°48'0 0.0
2017-Oct-20 04:30N 44°44' E 037°48'0 0.0
2017-Oct-20 04:00N 44°44' E 037°48'0 0.0
2017-Oct-20 03:30N 44°44' E 037°48'0 0.0
2017-Oct-20 03:00N 44°44' E 037°48'0 0.0
2017-Oct-20 02:30N 44°44' E 037°48'0 0.0
2017-Oct-20 01:57N 44°44' E 037°48'0 0.0
2017-Oct-20 01:30N 44°44' E 037°48'0 0.0
2017-Oct-20 01:00N 44°44' E 037°48'0 0.0
2017-Oct-20 00:30N 44°44' E 037°48'0 0.0
2017-Oct-20 00:00N 44°44' E 037°48'0 0.0
2017-Oct-19 23:30N 44°44' E 037°48'0 0.0
2017-Oct-19 23:00N 44°44' E 037°48'0 0.0
2017-Oct-19 22:30N 44°44' E 037°48'1 2.2
2017-Oct-19 22:00N 44°43' E 037°48'4 7.6
2017-Oct-19 21:30N 44°39' E 037°51'4 7.2
2017-Oct-19 21:00N 44°37' E 037°54'1 1.0
2017-Oct-19 20:30N 44°36' E 037°54'0 0.0
2017-Oct-19 20:00N 44°36' E 037°54'0 0.0
2017-Oct-19 19:30N 44°36' E 037°54'0 0.0
2017-Oct-19 18:57N 44°36' E 037°54'0 0.0
2017-Oct-19 18:30N 44°36' E 037°54'0 0.0
2017-Oct-19 18:00N 44°36' E 037°54'0 0.0
2017-Oct-19 17:27N 44°36' E 037°54'0 0.0
2017-Oct-19 17:00N 44°36' E 037°54'0 0.0
2017-Oct-19 16:30N 44°36' E 037°54'0 0.1
2017-Oct-19 16:00N 44°36' E 037°54'0 0.0
2017-Oct-19 15:30N 44°36' E 037°54'0 0.0
2017-Oct-19 15:00N 44°36' E 037°54'0 0.0
2017-Oct-19 14:21N 44°36' E 037°54'0 0.1
2017-Oct-19 14:00N 44°36' E 037°54'0 0.0
2017-Oct-19 13:30N 44°36' E 037°54'0 0.0
2017-Oct-19 13:00N 44°36' E 037°54'0 0.0
2017-Oct-19 12:30N 44°36' E 037°54'0 0.0
2017-Oct-19 12:00N 44°36' E 037°54'0 0.0
2017-Oct-19 11:30N 44°36' E 037°54'0 0.0
2017-Oct-19 11:00N 44°36' E 037°54'0 0.0
2017-Oct-19 10:30N 44°36' E 037°54'0 0.0
2017-Oct-19 10:00N 44°36' E 037°54'0 0.0
2017-Oct-19 09:30N 44°36' E 037°54'0 0.0
2017-Oct-19 09:00N 44°36' E 037°54'0 0.0
2017-Oct-19 08:30N 44°36' E 037°54'0 0.0
2017-Oct-19 08:00N 44°36' E 037°54'0 0.0
2017-Oct-19 07:30N 44°36' E 037°54'0 0.0
2017-Oct-19 06:57N 44°36' E 037°54'0 0.0
2017-Oct-19 06:30N 44°36' E 037°54'0 0.0
2017-Oct-19 06:00N 44°36' E 037°54'0 0.0
2017-Oct-19 05:30N 44°36' E 037°54'0 0.0
2017-Oct-19 05:00N 44°36' E 037°54'0 0.0
2017-Oct-19 04:30N 44°36' E 037°54'0 0.0
2017-Oct-19 03:30N 44°36' E 037°54'0 0.0
2017-Oct-19 03:00N 44°36' E 037°54'0 0.0
2017-Oct-19 02:27N 44°36' E 037°54'0 0.0
2017-Oct-19 02:00N 44°36' E 037°54'0 0.0
2017-Oct-19 01:30N 44°36' E 037°54'0 0.0
2017-Oct-19 00:57N 44°36' E 037°54'0 0.0
2017-Oct-19 00:30N 44°36' E 037°54'0 0.0
2017-Oct-18 23:30N 44°36' E 037°54'0 0.0
2017-Oct-18 23:00N 44°36' E 037°54'0 0.0
2017-Oct-18 22:30N 44°36' E 037°54'0 0.0
2017-Oct-18 22:00N 44°36' E 037°54'0 0.0
2017-Oct-18 21:30N 44°36' E 037°54'0 0.0
2017-Oct-18 21:00N 44°36' E 037°54'0 0.0
2017-Oct-18 20:30N 44°36' E 037°54'0 0.0
2017-Oct-18 20:00N 44°36' E 037°54'0 0.0
2017-Oct-18 19:30N 44°36' E 037°54'0 0.0
2017-Oct-18 19:00N 44°36' E 037°54'0 0.0
2017-Oct-18 18:30N 44°36' E 037°54'0 0.0
2017-Oct-18 18:00N 44°36' E 037°54'0 0.0
2017-Oct-18 17:30N 44°36' E 037°54'0 0.0
2017-Oct-18 17:00N 44°36' E 037°54'0 0.0
2017-Oct-18 16:30N 44°36' E 037°55'0 0.0
2017-Oct-18 16:00N 44°36' E 037°55'0 0.0
2017-Oct-18 15:30N 44°36' E 037°55'0 0.0
2017-Oct-18 14:00N 44°36' E 037°55'0 0.0
2017-Oct-18 13:30N 44°36' E 037°55'0 0.0
2017-Oct-18 13:00N 44°36' E 037°55'0 0.0
2017-Oct-18 12:30N 44°36' E 037°55'0 0.0
2017-Oct-18 12:00N 44°36' E 037°55'0 0.0
2017-Oct-18 11:30N 44°36' E 037°55'0 0.0
2017-Oct-18 11:00N 44°36' E 037°55'0 0.0
2017-Oct-18 10:30N 44°36' E 037°55'0 0.0
2017-Oct-18 10:00N 44°36' E 037°55'0 0.0
2017-Oct-18 09:30N 44°36' E 037°55'0 0.0
2017-Oct-18 09:00N 44°36' E 037°55'0 0.0
2017-Oct-18 08:27N 44°36' E 037°55'0 0.0
2017-Oct-18 08:00N 44°36' E 037°55'0 0.0
2017-Oct-18 07:30N 44°36' E 037°55'0 0.0
2017-Oct-18 07:00N 44°36' E 037°55'0 0.0
2017-Oct-18 06:30N 44°36' E 037°55'0 0.0
2017-Oct-18 06:00N 44°36' E 037°55'0 0.0
2017-Oct-18 05:27N 44°36' E 037°54'0 0.1
2017-Oct-18 05:00N 44°36' E 037°55'0 0.0
2017-Oct-18 04:30N 44°36' E 037°55'0 0.0
2017-Oct-18 04:00N 44°36' E 037°55'0 0.0
2017-Oct-18 03:30N 44°36' E 037°55'0 0.0
2017-Oct-18 03:00N 44°36' E 037°55'0 0.0
2017-Oct-18 02:29N 44°36' E 037°55'0 0.0
2017-Oct-18 02:00N 44°36' E 037°55'0 0.0
2017-Oct-18 01:30N 44°36' E 037°55'0 0.0
2017-Oct-18 01:00N 44°36' E 037°55'0 0.0
2017-Oct-18 00:26N 44°36' E 037°55'0 0.1
2017-Oct-18 00:00N 44°36' E 037°55'0 0.0
2017-Oct-17 23:30N 44°36' E 037°55'0 0.0
2017-Oct-17 23:00N 44°36' E 037°55'0 0.0
2017-Oct-17 22:30N 44°36' E 037°55'0 0.0
2017-Oct-17 21:59N 44°36' E 037°55'0 0.0
2017-Oct-17 21:30N 44°36' E 037°55'0 0.1
2017-Oct-17 21:00N 44°36' E 037°54'0 0.0
2017-Oct-17 20:30N 44°36' E 037°54'0 0.0
2017-Oct-17 20:00N 44°36' E 037°54'0 0.0
2017-Oct-17 19:30N 44°36' E 037°54'0 0.0
2017-Oct-17 19:00N 44°36' E 037°54'0 0.0
2017-Oct-17 18:30N 44°36' E 037°54'0 0.0
2017-Oct-17 18:00N 44°36' E 037°54'0 0.0
2017-Oct-17 17:29N 44°36' E 037°55'0 0.0
2017-Oct-17 17:00N 44°36' E 037°55'0 0.0
2017-Oct-17 16:30N 44°36' E 037°55'0 0.0
2017-Oct-17 15:59N 44°36' E 037°55'0 0.0
2017-Oct-17 15:17N 44°36' E 037°55'0 0.0
2017-Oct-17 15:00N 44°36' E 037°55'0 0.0
2017-Oct-17 14:30N 44°36' E 037°55'0 0.0
2017-Oct-17 14:00N 44°36' E 037°55'0 0.0
2017-Oct-17 13:29N 44°36' E 037°55'0 0.0
2017-Oct-17 12:59N 44°36' E 037°55'0 0.0
2017-Oct-17 12:30N 44°36' E 037°55'0 0.0
2017-Oct-17 12:00N 44°36' E 037°55'0 0.0
2017-Oct-17 11:30N 44°36' E 037°55'0 0.0
2017-Oct-17 10:59N 44°36' E 037°55'0 0.0
2017-Oct-17 10:30N 44°36' E 037°55'0 0.0
2017-Oct-17 09:59N 44°36' E 037°55'0 0.0
2017-Oct-17 09:29N 44°36' E 037°55'0 0.0
2017-Oct-17 09:00N 44°36' E 037°55'0 0.0
2017-Oct-17 08:30N 44°36' E 037°55'0 0.1
2017-Oct-17 08:00N 44°36' E 037°55'0 0.0
2017-Oct-17 07:29N 44°36' E 037°55'0 0.0
2017-Oct-17 06:59N 44°36' E 037°55'0 0.0
2017-Oct-17 06:29N 44°36' E 037°55'0 0.0
2017-Oct-17 06:00N 44°36' E 037°55'0 0.0
2017-Oct-17 05:29N 44°36' E 037°55'0 0.0
2017-Oct-17 04:59N 44°36' E 037°55'0 0.0
2017-Oct-17 04:29N 44°36' E 037°55'0 0.0
2017-Oct-17 03:59N 44°36' E 037°55'0 0.0
2017-Oct-17 03:14N 44°36' E 037°54'0 0.1
2017-Oct-17 03:00N 44°36' E 037°54'0 0.0
2017-Oct-17 02:29N 44°36' E 037°54'0 0.0
2017-Oct-17 01:59N 44°36' E 037°54'0 0.0
2017-Oct-17 01:29N 44°36' E 037°54'0 0.0
2017-Oct-17 00:59N 44°36' E 037°54'0 0.0
2017-Oct-17 00:29N 44°36' E 037°54'0 0.0
2017-Oct-16 23:59N 44°36' E 037°54'0 0.0
2017-Oct-16 23:29N 44°36' E 037°54'0 0.0
2017-Oct-16 22:59N 44°36' E 037°54'0 0.0
2017-Oct-16 22:29N 44°36' E 037°54'0 0.0
2017-Oct-16 21:59N 44°36' E 037°54'0 0.0
2017-Oct-16 21:29N 44°36' E 037°54'0 0.1
2017-Oct-16 20:59N 44°36' E 037°54'0 0.0
2017-Oct-16 20:29N 44°36' E 037°54'0 0.1
2017-Oct-16 19:59N 44°36' E 037°55'0 0.1
2017-Oct-16 19:29N 44°36' E 037°55'0 0.0
2017-Oct-16 18:59N 44°36' E 037°55'0 0.0
2017-Oct-16 18:05N 44°36' E 037°55'0 0.1
2017-Oct-16 17:59N 44°36' E 037°55'  

Dump ship's entire track history